Time;durP1;ratioP1;P1;durP2;ratioP2;P2;SDS_P1;SDS_P2;PMS_P1;PMS_P2;Temp;Humidity;BMP_temperature;BMP_pressure;BME280_temperature;BME280_humidity;BME280_pressure;Samples;Min_cycle;Max_cycle;Signal;HPM_P1;HPM_P2
2020/12/29 00:01:49;;;;;;;3.05;2.55;;;;;;;4.26;76.02;96679.22;10385401;28;20041;-65
2020/12/29 00:06:53;;;;;;;2.30;2.10;;;;;;;4.35;76.46;96698.44;10344952;28;20052;-67
2020/12/29 00:11:55;;;;;;;2.58;2.38;;;;;;;4.31;76.55;96686.59;10374789;28;20096;-69
2020/12/29 00:16:56;;;;;;;3.15;2.85;;;;;;;4.28;77.02;96692.22;10388298;28;20045;-66
2020/12/29 00:21:58;;;;;;;2.97;2.42;;;;;;;4.28;77.21;96694.84;10378209;28;20088;-66
2020/12/29 00:27:01;;;;;;;4.10;2.30;;;;;;;4.14;77.60;96668.25;10354781;28;20108;-65
2020/12/29 00:32:03;;;;;;;2.63;2.40;;;;;;;4.19;76.78;96680.91;10339481;28;20038;-66
2020/12/29 00:37:04;;;;;;;2.95;2.40;;;;;;;4.27;77.82;96685.31;10341581;28;20096;-66
2020/12/29 00:42:06;;;;;;;3.08;2.63;;;;;;;4.21;78.27;96690.28;10362154;23;20058;-71
2020/12/29 00:47:07;;;;;;;2.90;2.38;;;;;;;4.23;77.84;96695.34;10368064;28;20076;-70
2020/12/29 00:52:08;;;;;;;2.30;2.08;;;;;;;4.18;77.96;96695.88;10357922;28;20099;-70
2020/12/29 00:57:09;;;;;;;3.75;2.40;;;;;;;4.17;77.97;96704.75;10370904;28;20106;-70
2020/12/29 01:02:11;;;;;;;4.03;2.40;;;;;;;4.18;78.73;96698.50;10363981;28;20077;-70
2020/12/29 01:07:13;;;;;;;2.20;1.85;;;;;;;4.10;78.60;96695.91;10356648;28;20048;-70
2020/12/29 01:12:16;;;;;;;3.58;2.60;;;;;;;4.08;78.94;96708.41;10367058;28;20068;-72
2020/12/29 01:17:17;;;;;;;3.55;2.53;;;;;;;4.09;78.95;96709.25;10363360;28;20049;-69
2020/12/29 01:22:18;;;;;;;3.85;2.40;;;;;;;4.06;79.48;96711.22;10376333;28;20045;-71
2020/12/29 01:27:20;;;;;;;3.92;2.55;;;;;;;4.00;79.26;96706.63;10400080;28;20237;-69
2020/12/29 01:32:21;;;;;;;4.50;3.28;;;;;;;4.01;79.73;96704.84;10390764;28;20049;-69
2020/12/29 01:37:22;;;;;;;3.38;2.78;;;;;;;4.01;79.65;96702.19;10380522;28;20061;-70
2020/12/29 01:42:23;;;;;;;3.80;2.80;;;;;;;4.01;79.74;96708.28;10380848;28;20041;-69
2020/12/29 01:47:25;;;;;;;3.15;2.70;;;;;;;4.01;79.64;96718.81;10376750;28;20049;-69
2020/12/29 01:52:29;;;;;;;2.97;2.72;;;;;;;4.04;79.98;96712.38;10369544;28;20060;-69
2020/12/29 01:57:32;;;;;;;4.13;3.20;;;;;;;4.00;80.00;96718.97;10378635;28;20053;-70
2020/12/29 02:02:34;;;;;;;3.63;3.30;;;;;;;4.04;80.46;96723.72;10375116;28;20045;-70
2020/12/29 02:07:35;;;;;;;3.50;2.80;;;;;;;4.08;79.70;96721.56;10386362;28;20057;-70
2020/12/29 02:12:36;;;;;;;3.22;2.92;;;;;;;4.09;79.68;96710.06;10393541;28;20042;-70
2020/12/29 02:17:38;;;;;;;3.88;2.80;;;;;;;4.09;79.51;96722.41;10399032;28;20056;-70
2020/12/29 02:22:39;;;;;;;3.72;2.95;;;;;;;4.08;80.47;96734.72;10383788;28;20060;-69
2020/12/29 02:27:49;;;;;;;2.92;2.65;;;;;;;4.09;80.06;96736.38;10382864;28;20127;-70
2020/12/29 02:32:50;;;;;;;3.40;2.97;;;;;;;4.03;80.42;96729.16;10379681;28;20427;-70
2020/12/29 02:37:51;;;;;;;4.15;2.70;;;;;;;4.09;80.01;96717.16;10377397;28;20068;-70
2020/12/29 02:42:53;;;;;;;2.50;2.30;;;;;;;4.13;79.95;96731.59;10372843;28;21306;-69
2020/12/29 02:47:55;;;;;;;2.90;2.45;;;;;;;4.16;80.37;96736.50;10358431;28;20057;-70
2020/12/29 02:52:56;;;;;;;3.30;2.35;;;;;;;4.10;80.63;96732.78;10375627;28;20060;-70
2020/12/29 02:57:57;;;;;;;2.50;2.22;;;;;;;4.13;81.08;96729.81;10372173;28;20407;-70
2020/12/29 03:02:58;;;;;;;3.15;2.08;;;;;;;4.18;80.55;96724.03;10383137;28;20050;-70
2020/12/29 03:08:00;;;;;;;1.98;1.88;;;;;;;4.13;80.44;96721.91;10370812;28;20374;-71
2020/12/29 03:13:01;;;;;;;3.40;2.47;;;;;;;4.17;80.54;96723.19;10376513;28;20380;-69
2020/12/29 03:18:02;;;;;;;2.58;2.35;;;;;;;4.11;80.65;96713.34;10363728;28;20057;-70
2020/12/29 03:23:04;;;;;;;2.35;2.15;;;;;;;4.19;80.95;96718.59;10349810;28;20049;-70
2020/12/29 03:28:05;;;;;;;3.67;1.90;;;;;;;4.25;81.02;96725.00;10353299;28;20480;-69
2020/12/29 03:33:06;;;;;;;2.70;2.33;;;;;;;4.30;80.98;96724.47;10383253;28;20149;-69
2020/12/29 03:38:07;;;;;;;2.55;1.92;;;;;;;4.32;80.98;96727.75;10380962;28;20058;-70
2020/12/29 03:43:12;;;;;;;3.28;2.97;;;;;;;4.35;80.76;96738.75;10377423;28;20127;-69
2020/12/29 03:48:17;;;;;;;3.25;2.47;;;;;;;4.42;81.29;96737.09;10384654;28;20072;-70
2020/12/29 03:53:19;;;;;;;2.92;2.63;;;;;;;4.46;81.15;96737.59;10376295;28;20049;-70
2020/12/29 03:58:20;;;;;;;4.45;2.92;;;;;;;4.45;81.11;96741.19;10346467;28;20520;-70
2020/12/29 04:03:21;;;;;;;3.55;3.25;;;;;;;4.48;80.77;96740.84;10372294;28;20050;-70
2020/12/29 04:08:22;;;;;;;3.95;3.65;;;;;;;4.47;81.07;96728.66;10352798;28;20042;-70
2020/12/29 04:13:23;;;;;;;5.35;4.85;;;;;;;4.51;81.19;96740.50;10359254;28;20704;-70
2020/12/29 04:18:25;;;;;;;5.50;5.00;;;;;;;4.54;80.95;96740.16;10376641;28;20561;-70
2020/12/29 04:23:26;;;;;;;7.63;6.93;;;;;;;4.48;81.28;96740.84;10377378;28;20080;-70
2020/12/29 04:28:27;;;;;;;7.70;7.00;;;;;;;4.45;81.94;96735.13;10386878;28;20061;-70
2020/12/29 04:33:28;;;;;;;6.00;5.50;;;;;;;4.52;81.47;96734.25;10387020;28;20520;-69
2020/12/29 04:38:30;;;;;;;3.72;3.08;;;;;;;4.53;80.73;96737.72;10383500;28;20080;-70
2020/12/29 04:43:32;;;;;;;3.33;2.92;;;;;;;4.49;80.86;96728.50;10369273;28;20061;-69
2020/12/29 04:48:34;;;;;;;2.42;2.22;;;;;;;4.49;81.68;96742.50;10345633;28;20129;-70
2020/12/29 04:53:36;;;;;;;3.08;2.45;;;;;;;4.53;81.93;96745.59;10337071;28;20049;-70
2020/12/29 04:58:38;;;;;;;2.22;2.00;;;;;;;4.57;81.44;96746.91;10335549;28;20125;-69
2020/12/29 05:03:44;;;;;;;2.03;1.83;;;;;;;4.55;81.69;96749.72;10344114;28;20512;-70
2020/12/29 05:08:49;;;;;;;4.55;1.90;;;;;;;4.58;81.97;96757.28;10356548;28;20512;-70
2020/12/29 05:13:51;;;;;;;2.50;1.67;;;;;;;4.57;82.61;96766.16;10377091;28;20053;-70
2020/12/29 05:18:52;;;;;;;1.65;1.55;;;;;;;4.56;82.83;96771.59;10369084;28;20509;-68
2020/12/29 05:23:54;;;;;;;2.03;0.98;;;;;;;4.50;83.48;96772.28;10354186;28;20212;-70
2020/12/29 05:28:55;;;;;;;1.17;0.80;;;;;;;4.37;83.99;96770.22;10370255;28;20049;-70
2020/12/29 05:33:56;;;;;;;0.90;0.80;;;;;;;4.38;84.40;96782.38;10368659;28;20053;-69
2020/12/29 05:39:13;;;;;;;1.15;0.60;;;;;;;4.37;84.68;96809.72;10376083;28;20053;-70
2020/12/29 05:44:28;;;;;;;0.60;0.60;;;;;;;4.31;84.06;96818.25;10368456;28;20049;-70
2020/12/29 05:49:31;;;;;;;0.83;0.70;;;;;;;4.21;84.42;96834.25;10368353;28;20248;-70
2020/12/29 05:54:35;;;;;;;0.70;0.50;;;;;;;4.25;83.76;96841.66;10363747;28;20426;-70
2020/12/29 05:59:37;;;;;;;1.17;0.60;;;;;;;4.19;83.40;96837.06;10352761;28;20044;-70
2020/12/29 06:04:40;;;;;;;1.17;0.40;;;;;;;4.19;83.09;96852.84;10368762;28;20128;-69
2020/12/29 06:09:46;;;;;;;0.93;0.73;;;;;;;4.12;83.00;96865.03;10369485;28;20061;-70
2020/12/29 06:14:57;;;;;;;1.30;0.90;;;;;;;4.09;82.77;96885.59;10353116;28;20107;-70
2020/12/29 06:20:05;;;;;;;0.95;0.95;;;;;;;4.12;82.11;96901.88;10348261;28;20066;-69
2020/12/29 06:25:15;;;;;;;1.20;1.10;;;;;;;4.02;82.51;96919.63;10344633;28;21048;-69
2020/12/29 06:30:18;;;;;;;1.95;1.33;;;;;;;4.00;82.21;96926.88;10345920;28;20115;-69
2020/12/29 06:35:20;;;;;;;2.70;1.45;;;;;;;3.95;82.40;96939.69;10337342;28;20069;-68
2020/12/29 06:45:33;;;;;;;1.20;1.10;;;;;;;3.87;81.57;96965.03;10301085;28;20053;-56
2020/12/29 06:50:35;;;;;;;1.70;1.60;;;;;;;3.86;82.16;96979.16;10316253;28;20702;-57
2020/12/29 06:55:39;;;;;;;1.80;1.70;;;;;;;3.90;82.51;96998.06;10317107;28;20053;-56
2020/12/29 07:00:40;;;;;;;4.85;1.40;;;;;;;3.91;82.45;97015.53;10313823;28;20054;-56
2020/12/29 07:05:46;;;;;;;2.10;1.60;;;;;;;3.74;84.05;97022.56;10311587;28;20054;-58
2020/12/29 07:10:48;;;;;;;1.63;1.52;;;;;;;3.83;83.28;97021.59;10313054;28;20060;-58
2020/12/29 07:15:55;;;;;;;1.80;1.70;;;;;;;4.02;83.25;97044.19;10311142;28;20062;-57
2020/12/29 07:20:58;;;;;;;2.95;1.90;;;;;;;3.78;83.40;97052.81;10316466;28;20408;-57
2020/12/29 07:25:59;;;;;;;2.17;1.73;;;;;;;3.86;84.00;97083.59;10323486;28;20069;-56
2020/12/29 07:31:01;;;;;;;2.33;2.13;;;;;;;3.76;83.08;97088.16;10325103;28;20050;-56
2020/12/29 07:36:03;;;;;;;2.30;2.10;;;;;;;3.81;83.81;97107.72;10339110;28;20054;-56
2020/12/29 07:41:05;;;;;;;3.80;2.67;;;;;;;3.88;83.23;97127.19;10328097;28;20064;-57
2020/12/29 07:46:08;;;;;;;1.90;1.63;;;;;;;3.86;83.29;97138.88;10318937;28;20061;-56
2020/12/29 07:51:09;;;;;;;2.17;1.98;;;;;;;3.89;82.78;97146.44;10325567;28;20050;-56
2020/12/29 07:56:11;;;;;;;3.20;2.00;;;;;;;3.80;83.14;97164.00;10328010;28;20148;-57
2020/12/29 08:01:13;;;;;;;2.85;2.03;;;;;;;3.93;82.97;97181.16;10322969;28;20049;-56
2020/12/29 08:06:14;;;;;;;2.83;1.63;;;;;;;3.60;83.04;97157.28;10313982;28;20092;-57
2020/12/29 08:11:22;;;;;;;2.15;1.63;;;;;;;3.81;82.90;97197.19;10318149;28;20406;-57
2020/12/29 08:16:23;;;;;;;2.15;1.75;;;;;;;3.97;83.16;97216.72;10320077;28;20553;-57
2020/12/29 08:21:25;;;;;;;1.60;1.30;;;;;;;3.89;82.45;97225.38;10321831;28;20114;-57
2020/12/29 08:26:27;;;;;;;3.65;1.15;;;;;;;3.91;82.77;97233.94;10322206;28;20365;-56
2020/12/29 08:31:29;;;;;;;2.13;1.23;;;;;;;4.14;82.53;97270.25;10319762;28;20064;-57
2020/12/29 08:36:30;;;;;;;1.92;1.08;;;;;;;4.01;82.10;97281.22;10318464;28;20060;-57
2020/12/29 08:41:41;;;;;;;1.20;1.00;;;;;;;3.99;82.60;97304.22;10312594;28;20151;-57
2020/12/29 08:46:42;;;;;;;1.92;1.20;;;;;;;4.06;81.79;97310.53;10319951;28;20584;-58
2020/12/29 08:51:45;;;;;;;1.08;0.93;;;;;;;3.96;81.95;97336.13;10309675;28;20133;-57
2020/12/29 08:56:47;;;;;;;1.25;0.93;;;;;;;4.04;81.83;97342.28;10315954;28;20053;-56
2020/12/29 09:01:55;;;;;;;1.13;1.02;;;;;;;3.96;82.05;97336.13;10318392;28;20062;-56
2020/12/29 09:07:13;;;;;;;1.52;1.05;;;;;;;4.15;81.89;97364.88;10319536;28;20072;-57
2020/12/29 09:12:35;;;;;;;1.10;1.00;;;;;;;4.27;80.91;97372.56;10314656;28;20060;-57
2020/12/29 09:17:44;;;;;;;1.40;0.70;;;;;;;4.30;80.66;97401.22;10318684;28;20127;-57
2020/12/29 09:23:02;;;;;;;1.75;0.80;;;;;;;4.35;81.05;97426.09;10319767;28;20137;-58
2020/12/29 09:28:23;;;;;;;1.15;0.82;;;;;;;4.31;80.43;97439.72;10323386;28;20210;-56
2020/12/29 09:33:27;;;;;;;1.17;1.02;;;;;;;4.27;80.81;97465.53;10319675;28;20108;-59
2020/12/29 09:38:29;;;;;;;1.02;0.95;;;;;;;4.31;80.43;97464.25;10337346;28;20574;-57
2020/12/29 09:43:33;;;;;;;2.03;1.80;;;;;;;4.40;80.36;97470.44;10321711;28;20350;-56
2020/12/29 09:48:34;;;;;;;1.23;1.10;;;;;;;4.49;80.73;97487.94;10319652;28;20371;-57
2020/12/29 09:53:35;;;;;;;1.88;1.15;;;;;;;4.67;79.78;97510.78;10321049;28;20058;-56
2020/12/29 09:58:37;;;;;;;1.38;1.15;;;;;;;4.63;79.05;97497.09;10320196;28;20065;-58
2020/12/29 10:03:39;;;;;;;1.33;1.20;;;;;;;4.64;79.18;97525.13;10321514;28;20061;-56
2020/12/29 10:08:40;;;;;;;1.90;1.70;;;;;;;4.72;79.76;97525.16;10317808;28;20084;-57
2020/12/29 10:13:41;;;;;;;1.60;1.13;;;;;;;4.76;79.55;97538.88;10317313;28;20164;-57
2020/12/29 10:18:42;;;;;;;1.90;1.75;;;;;;;4.75;79.24;97543.31;10317758;28;20132;-56
2020/12/29 10:23:44;;;;;;;2.03;1.83;;;;;;;4.72;78.67;97548.88;10316158;28;20056;-56
2020/12/29 10:28:45;;;;;;;2.08;1.90;;;;;;;4.83;78.97;97555.72;10318583;28;20049;-57
2020/12/29 10:33:48;;;;;;;2.38;2.17;;;;;;;4.81;78.26;97570.03;10332433;28;20499;-56
2020/12/29 10:38:49;;;;;;;2.00;1.80;;;;;;;4.87;78.27;97574.69;10318377;28;20101;-57
2020/12/29 10:43:51;;;;;;;2.35;1.85;;;;;;;4.87;77.52;97593.16;10318453;28;20166;-57
2020/12/29 10:48:53;;;;;;;2.05;1.92;;;;;;;4.93;78.54;97603.91;10314711;28;20054;-56
2020/12/29 10:53:55;;;;;;;2.40;2.20;;;;;;;5.11;77.42;97608.31;10318778;28;20050;-56
2020/12/29 10:58:57;;;;;;;2.65;1.98;;;;;;;5.15;76.16;97614.97;10308994;28;20054;-56
2020/12/29 11:03:59;;;;;;;2.15;1.95;;;;;;;5.29;75.31;97621.47;10317779;28;20050;-57
2020/12/29 11:09:00;;;;;;;3.65;2.30;;;;;;;5.49;75.10;97630.84;10311749;28;20673;-56
2020/12/29 11:14:02;;;;;;;1.65;1.50;;;;;;;5.31;75.12;97638.81;10325790;28;20077;-56
2020/12/29 11:19:04;;;;;;;2.72;1.83;;;;;;;5.23;75.26;97656.38;10313348;28;20073;-56
2020/12/29 11:24:06;;;;;;;4.50;4.03;;;;;;;5.37;74.47;97653.19;10313822;28;20065;-55
2020/12/29 11:29:07;;;;;;;3.38;1.73;;;;;;;6.13;72.04;97645.56;10330386;28;20079;-56
2020/12/29 11:34:08;;;;;;;2.38;2.17;;;;;;;6.16;71.30;97659.25;10315474;28;20069;-56
2020/12/29 11:39:10;;;;;;;2.58;1.63;;;;;;;5.75;72.76;97674.03;10312587;28;20522;-55
2020/12/29 11:44:11;;;;;;;3.10;1.90;;;;;;;5.61;72.60;97676.25;10316990;28;20092;-56
2020/12/29 11:49:12;;;;;;;2.83;2.08;;;;;;;6.10;70.35;97675.75;10314566;28;20109;-55
2020/12/29 11:54:14;;;;;;;2.10;1.90;;;;;;;6.21;70.80;97697.59;10316268;28;20156;-56
2020/12/29 11:59:16;;;;;;;3.47;1.73;;;;;;;6.03;70.84;97695.03;10313627;28;21964;-55
2020/12/29 12:04:17;;;;;;;1.83;1.40;;;;;;;6.11;70.03;97711.75;10312580;28;20086;-55
2020/12/29 12:09:19;;;;;;;2.67;1.85;;;;;;;5.82;70.99;97690.91;10315676;28;20296;-56
2020/12/29 12:14:20;;;;;;;1.52;1.25;;;;;;;5.92;70.72;97725.97;10318206;28;20054;-55
2020/12/29 12:19:22;;;;;;;1.90;1.48;;;;;;;5.89;69.60;97725.44;10319875;28;20190;-56
2020/12/29 12:24:23;;;;;;;4.05;1.80;;;;;;;5.76;70.03;97720.56;10313574;28;20058;-57
2020/12/29 12:29:24;;;;;;;2.30;1.50;;;;;;;5.92;69.25;97733.88;10306230;28;20063;-57
2020/12/29 12:34:26;;;;;;;1.75;1.40;;;;;;;6.16;68.37;97748.25;10321119;28;20471;-55
2020/12/29 12:39:27;;;;;;;2.00;1.40;;;;;;;6.06;68.01;97744.88;10318682;28;20165;-56
2020/12/29 12:44:28;;;;;;;2.85;1.30;;;;;;;6.08;68.42;97764.03;10375101;23;20124;-69
2020/12/29 12:49:29;;;;;;;2.45;1.85;;;;;;;6.01;68.02;97767.31;10341801;28;20054;-71
2020/12/29 12:54:30;;;;;;;1.52;1.33;;;;;;;5.98;67.72;97772.91;10352153;28;20393;-72
2020/12/29 12:59:32;;;;;;;3.15;1.77;;;;;;;5.96;68.89;97772.19;10358836;28;20523;-73
2020/12/29 13:04:33;;;;;;;3.13;1.52;;;;;;;5.83;67.99;97779.69;10360762;28;20140;-73
2020/12/29 13:09:34;;;;;;;2.75;1.83;;;;;;;5.78;68.51;97797.78;10341651;28;20126;-72
2020/12/29 13:14:36;;;;;;;3.67;1.75;;;;;;;5.75;69.28;97798.09;10349435;28;20131;-72
2020/12/29 13:19:37;;;;;;;7.10;4.65;;;;;;;5.73;69.55;97800.06;10341662;28;20088;-72
2020/12/29 13:24:38;;;;;;;3.03;2.20;;;;;;;5.78;70.62;97811.00;10331893;28;20532;-72
2020/12/29 13:29:40;;;;;;;4.55;3.50;;;;;;;5.73;70.71;97810.63;10333330;28;20129;-72
2020/12/29 13:34:41;;;;;;;5.18;2.40;;;;;;;5.78;70.77;97821.56;10337184;28;20061;-71
2020/12/29 13:39:43;;;;;;;3.33;2.70;;;;;;;5.64;70.88;97839.63;10339283;28;20054;-72
2020/12/29 13:44:44;;;;;;;2.28;1.98;;;;;;;5.73;71.23;97847.59;10337718;28;20054;-72
2020/12/29 13:49:46;;;;;;;3.42;2.15;;;;;;;6.33;68.49;97866.22;10339782;28;20061;-73
2020/12/29 13:54:47;;;;;;;3.25;2.40;;;;;;;6.51;67.41;97870.66;10357745;28;20092;-72
2020/12/29 13:59:48;;;;;;;5.97;3.03;;;;;;;6.13;67.68;97873.53;10349760;28;20052;-72
2020/12/29 14:04:50;;;;;;;3.40;2.45;;;;;;;5.91;67.80;97884.53;10367259;28;20110;-72
2020/12/29 14:09:51;;;;;;;4.57;2.83;;;;;;;5.78;67.59;97893.69;10367128;28;20053;-72
2020/12/29 14:14:53;;;;;;;2.97;2.40;;;;;;;5.82;67.99;97904.75;10375394;28;20053;-72
2020/12/29 14:19:54;;;;;;;6.75;3.88;;;;;;;5.78;67.12;97912.16;10381533;28;20519;-72
2020/12/29 14:24:55;;;;;;;5.78;3.05;;;;;;;5.83;67.06;97914.34;10374714;28;20049;-72
2020/12/29 14:29:57;;;;;;;4.85;2.60;;;;;;;5.99;66.91;97922.44;10377172;28;20174;-73
2020/12/29 14:34:58;;;;;;;4.18;2.88;;;;;;;6.12;66.07;97937.06;10384050;28;20065;-71
2020/12/29 14:40:00;;;;;;;3.22;2.78;;;;;;;5.98;65.96;97933.97;10343941;28;20045;-71
2020/12/29 14:45:02;;;;;;;3.67;3.08;;;;;;;5.86;66.44;97937.81;10334608;28;20213;-72
2020/12/29 14:50:04;;;;;;;4.00;3.20;;;;;;;5.76;67.04;97935.22;10345243;28;20167;-73
2020/12/29 14:55:05;;;;;;;3.13;2.40;;;;;;;5.62;67.47;97957.69;10376814;28;20353;-73
2020/12/29 15:00:06;;;;;;;4.32;2.65;;;;;;;5.43;67.46;97969.16;10374127;28;20060;-72
2020/12/29 15:05:07;;;;;;;4.30;2.95;;;;;;;5.44;67.36;97967.38;10374353;28;20893;-73
2020/12/29 15:10:09;;;;;;;5.43;3.10;;;;;;;5.52;67.80;97977.19;10369770;28;20041;-72
2020/12/29 15:15:10;;;;;;;5.15;3.50;;;;;;;5.42;67.67;97977.22;10377583;28;20045;-70
2020/12/29 15:20:14;;;;;;;9.13;6.10;;;;;;;5.50;68.30;97982.63;10384855;28;20140;-71
2020/12/29 15:25:20;;;;;;;7.07;4.00;;;;;;;5.52;69.01;97983.28;10368694;28;20056;-71
2020/12/29 15:30:21;;;;;;;48.58;28.60;;;;;;;5.54;68.94;97997.19;10340557;28;20852;-71
2020/12/29 15:35:23;;;;;;;34.75;17.33;;;;;;;5.48;69.41;97993.31;10356215;28;20068;-72
2020/12/29 15:40:24;;;;;;;7.30;4.07;;;;;;;5.40;69.82;97997.66;10362796;28;20566;-72
2020/12/29 15:45:26;;;;;;;6.32;3.88;;;;;;;5.43;70.57;98002.66;10374354;28;20061;-71
2020/12/29 15:50:27;;;;;;;9.23;6.57;;;;;;;5.35;70.51;98007.84;10410598;28;20056;-74
2020/12/29 15:55:28;;;;;;;31.05;23.77;;;;;;;5.42;71.35;97998.34;10400849;28;20103;-72
2020/12/29 16:00:30;;;;;;;25.00;19.83;;;;;;;5.42;71.21;98006.25;10374070;28;20049;-71
2020/12/29 16:05:31;;;;;;;11.20;8.52;;;;;;;5.35;71.31;98010.47;10379396;28;20169;-71
2020/12/29 16:10:33;;;;;;;13.48;12.10;;;;;;;5.48;70.68;98024.16;10341986;28;20057;-72
2020/12/29 16:15:34;;;;;;;6.22;3.20;;;;;;;5.48;70.25;98029.44;10357472;28;20058;-72
2020/12/29 16:20:35;;;;;;;3.25;2.58;;;;;;;5.49;70.55;98021.38;10352219;28;20133;-70
2020/12/29 16:25:37;;;;;;;7.70;5.20;;;;;;;5.43;69.74;98032.50;10352980;28;20417;-71
2020/12/29 16:30:38;;;;;;;4.90;3.65;;;;;;;5.41;69.98;98044.19;10340178;28;20065;-73
2020/12/29 16:35:43;;;;;;;6.20;3.45;;;;;;;5.44;69.33;98049.19;10370317;28;20069;-70
2020/12/29 16:40:44;;;;;;;4.82;2.50;;;;;;;5.39;69.75;98052.25;10378448;28;20050;-73
2020/12/29 16:45:46;;;;;;;5.53;2.50;;;;;;;5.33;70.35;98058.09;10385143;28;20052;-71
2020/12/29 16:50:47;;;;;;;4.95;2.78;;;;;;;5.49;70.36;98054.84;10397239;28;20130;-74
2020/12/29 16:55:48;;;;;;;6.13;4.88;;;;;;;5.36;70.07;98054.31;10376842;28;20045;-72
2020/12/29 17:00:49;;;;;;;5.65;3.00;;;;;;;5.42;70.29;98059.03;10389051;28;20045;-71
2020/12/29 17:05:51;;;;;;;5.78;2.70;;;;;;;5.52;69.73;98074.84;10415861;28;20068;-72
2020/12/29 17:10:53;;;;;;;6.72;3.28;;;;;;;5.53;70.33;98071.22;10384793;28;20602;-71
2020/12/29 17:15:55;;;;;;;5.45;2.78;;;;;;;5.42;70.06;98073.06;10386066;28;20057;-72
2020/12/29 17:20:56;;;;;;;5.78;2.25;;;;;;;5.32;70.39;98078.38;10379078;28;20551;-72
2020/12/29 17:25:57;;;;;;;6.43;4.05;;;;;;;5.33;71.26;98089.78;10382823;28;20049;-72
2020/12/29 17:31:01;;;;;;;3.67;2.25;;;;;;;5.25;71.12;98101.00;10378173;28;20045;-72
2020/12/29 17:36:03;;;;;;;3.03;2.38;;;;;;;5.28;71.28;98100.75;10385145;28;20112;-73
2020/12/29 17:41:19;;;;;;;5.15;2.13;;;;;;;5.30;71.47;98106.72;10337549;28;20096;-71
2020/12/29 17:46:23;;;;;;;3.53;2.70;;;;;;;5.29;71.58;98114.75;10339410;28;20046;-74
2020/12/29 17:51:24;;;;;;;5.22;2.50;;;;;;;5.35;71.41;98108.09;10343379;28;20431;-72
2020/12/29 17:56:27;;;;;;;3.33;2.45;;;;;;;5.30;71.56;98111.97;10342192;28;20168;-73
2020/12/29 18:01:28;;;;;;;3.83;2.90;;;;;;;5.26;71.62;98123.78;10355499;28;20056;-72
2020/12/29 18:06:29;;;;;;;5.07;2.42;;;;;;;5.23;72.06;98131.97;10354749;28;20144;-72
2020/12/29 18:11:32;;;;;;;7.50;5.63;;;;;;;5.25;72.32;98139.75;10382504;28;20088;-73
2020/12/29 18:16:33;;;;;;;4.55;3.00;;;;;;;5.28;72.60;98129.78;10384535;28;20041;-73
2020/12/29 18:21:35;;;;;;;7.65;5.03;;;;;;;5.32;72.50;98138.22;10388963;28;20083;-74
2020/12/29 18:26:37;;;;;;;9.48;6.25;;;;;;;5.20;72.61;98142.81;10389857;28;20099;-71
2020/12/29 18:31:38;;;;;;;7.70;4.35;;;;;;;5.21;73.11;98148.91;10375369;28;20077;-72
2020/12/29 18:36:44;;;;;;;3.85;3.03;;;;;;;5.29;73.01;98157.78;10377297;28;20396;-74
2020/12/29 18:41:48;;;;;;;7.15;5.88;;;;;;;5.31;73.27;98169.06;10388620;28;20053;-71
2020/12/29 18:46:50;;;;;;;3.10;2.70;;;;;;;5.36;73.45;98173.91;10404625;28;20041;-72
2020/12/29 18:51:51;;;;;;;3.72;2.70;;;;;;;5.28;73.58;98171.13;10394106;28;20477;-72
2020/12/29 18:56:52;;;;;;;6.45;3.97;;;;;;;5.21;74.48;98176.16;10375465;28;20053;-70
2020/12/29 19:01:54;;;;;;;4.47;2.90;;;;;;;5.07;74.86;98187.09;10382501;28;20124;-74
2020/12/29 19:06:55;;;;;;;3.08;2.70;;;;;;;4.89;75.84;98193.06;10393598;28;20057;-72
2020/12/29 19:11:57;;;;;;;4.57;2.65;;;;;;;4.85;77.01;98201.38;10403003;28;20053;-71
2020/12/29 19:16:58;;;;;;;4.30;2.67;;;;;;;5.02;78.37;98207.81;10377960;28;20200;-72
2020/12/29 19:21:59;;;;;;;3.83;2.92;;;;;;;4.98;75.91;98203.75;10355456;28;20454;-73
2020/12/29 19:27:01;;;;;;;4.30;2.75;;;;;;;4.87;76.80;98204.72;10387632;28;20058;-71
2020/12/29 19:32:03;;;;;;;3.25;2.65;;;;;;;4.76;77.22;98218.88;10395289;28;20041;-71
2020/12/29 19:37:05;;;;;;;4.47;4.07;;;;;;;4.76;77.32;98230.25;10391700;28;20496;-73
2020/12/29 19:42:06;;;;;;;3.53;3.22;;;;;;;4.66;77.67;98244.38;10394724;28;20054;-72
2020/12/29 19:47:07;;;;;;;4.03;2.90;;;;;;;4.77;77.66;98247.75;10385213;28;20151;-72
2020/12/29 19:52:09;;;;;;;5.93;3.28;;;;;;;4.74;77.39;98255.91;10377844;28;20115;-71
2020/12/29 19:57:10;;;;;;;4.00;3.60;;;;;;;4.75;77.67;98265.47;10379641;28;20060;-73
2020/12/29 20:02:12;;;;;;;5.28;3.08;;;;;;;4.62;77.80;98264.88;10384520;28;20085;-70
2020/12/29 20:07:13;;;;;;;6.80;3.10;;;;;;;4.54;78.32;98262.09;10348366;28;20049;-72
2020/12/29 20:12:15;;;;;;;4.88;3.83;;;;;;;4.56;78.41;98266.28;10392736;28;20642;-71
2020/12/29 20:17:18;;;;;;;5.55;3.58;;;;;;;4.40;78.69;98276.47;10405212;28;20060;-72
2020/12/29 20:22:23;;;;;;;4.00;3.45;;;;;;;4.21;79.71;98277.22;10377987;28;20567;-72
2020/12/29 20:27:26;;;;;;;5.53;4.43;;;;;;;4.35;79.34;98291.81;10356834;28;20058;-72
2020/12/29 20:32:27;;;;;;;5.53;4.97;;;;;;;4.47;78.84;98288.13;10342782;28;20053;-73
2020/12/29 20:37:28;;;;;;;5.15;4.20;;;;;;;4.53;78.80;98298.13;10384263;28;20049;-73
2020/12/29 20:42:30;;;;;;;12.27;8.00;;;;;;;4.64;78.39;98304.28;10343473;28;20053;-71
2020/12/29 20:47:31;;;;;;;5.53;4.47;;;;;;;4.54;78.38;98320.88;10342831;28;20065;-70
2020/12/29 20:52:33;;;;;;;4.25;3.85;;;;;;;4.55;78.54;98321.75;10350623;28;20114;-73
2020/12/29 20:57:34;;;;;;;5.50;4.13;;;;;;;4.67;78.10;98325.94;10358107;28;20054;-72
2020/12/29 21:02:35;;;;;;;3.88;3.58;;;;;;;4.64;77.89;98334.13;10380825;28;20057;-72
2020/12/29 21:07:52;;;;;;;5.22;3.83;;;;;;;4.70;77.55;98332.72;10411026;28;20064;-71
2020/12/29 21:12:54;;;;;;;4.30;3.53;;;;;;;4.71;77.56;98327.31;10410907;28;20136;-72
2020/12/29 21:17:55;;;;;;;3.70;3.35;;;;;;;4.54;77.67;98339.34;10412472;28;20100;-72
2020/12/29 21:22:56;;;;;;;3.72;3.40;;;;;;;4.48;78.13;98337.22;10406927;28;20052;-74
2020/12/29 21:27:57;;;;;;;4.50;3.63;;;;;;;4.53;78.29;98339.47;10402597;28;20080;-72
2020/12/29 21:32:59;;;;;;;8.85;3.88;;;;;;;4.54;77.70;98327.97;10390857;28;20431;-73
2020/12/29 21:38:00;;;;;;;4.55;3.47;;;;;;;4.66;77.49;98340.09;10383961;28;20046;-72
2020/12/29 21:43:01;;;;;;;3.78;3.47;;;;;;;4.70;77.27;98343.28;10394756;28;20108;-72
2020/12/29 21:48:02;;;;;;;4.38;3.70;;;;;;;4.73;76.90;98341.22;10396458;28;20042;-72
2020/12/29 21:53:04;;;;;;;3.30;2.97;;;;;;;4.75;76.96;98347.19;10392713;28;20103;-74
2020/12/29 21:58:05;;;;;;;4.35;3.58;;;;;;;4.76;76.24;98353.31;10392875;28;20061;-71
2020/12/29 22:03:06;;;;;;;4.32;3.70;;;;;;;4.78;76.86;98360.09;10391589;28;20061;-73
2020/12/29 22:08:08;;;;;;;4.32;3.92;;;;;;;4.80;76.67;98354.69;10387821;28;20068;-71
2020/12/29 22:13:10;;;;;;;5.22;3.75;;;;;;;4.88;76.24;98354.03;10381010;28;20123;-74
2020/12/29 22:18:11;;;;;;;13.32;11.32;;;;;;;4.92;76.43;98377.38;10348235;28;20057;-74
2020/12/29 22:23:13;;;;;;;4.70;3.70;;;;;;;4.72;76.75;98383.53;10365241;28;20087;-73
2020/12/29 22:28:14;;;;;;;4.53;3.80;;;;;;;4.77;76.67;98368.13;10418291;28;20053;-72
2020/12/29 22:33:15;;;;;;;5.47;3.85;;;;;;;4.76;76.56;98367.31;10410783;28;20045;-75
2020/12/29 22:38:16;;;;;;;4.22;3.72;;;;;;;4.75;75.96;98370.91;10418532;28;20111;-73
2020/12/29 22:43:18;;;;;;;4.03;3.17;;;;;;;4.82;76.32;98367.75;10409270;28;20330;-73
2020/12/29 22:48:19;;;;;;;4.70;3.40;;;;;;;4.93;75.70;98365.84;10397854;28;20045;-73
2020/12/29 22:53:20;;;;;;;4.03;3.17;;;;;;;4.98;75.47;98369.88;10391525;28;20586;-73
2020/12/29 22:58:22;;;;;;;4.85;3.45;;;;;;;4.95;74.81;98376.25;10381294;28;20050;-73
2020/12/29 23:03:23;;;;;;;4.00;3.20;;;;;;;4.97;75.10;98374.34;10398079;28;20081;-73
2020/12/29 23:08:24;;;;;;;6.63;3.83;;;;;;;4.98;75.20;98385.72;10386946;28;20053;-73
2020/12/29 23:13:25;;;;;;;4.10;3.47;;;;;;;4.96;74.89;98389.31;10383247;28;20931;-73
2020/12/29 23:18:27;;;;;;;4.88;3.67;;;;;;;5.00;75.44;98389.03;10396190;28;20057;-73
2020/12/29 23:23:31;;;;;;;3.97;3.55;;;;;;;4.96;75.45;98389.31;10384108;28;20072;-73
2020/12/29 23:28:36;;;;;;;4.38;3.90;;;;;;;5.04;75.46;98393.09;10381768;28;20436;-73
2020/12/29 23:33:37;;;;;;;4.45;4.03;;;;;;;5.01;75.57;98390.72;10383879;28;20486;-73
2020/12/29 23:38:38;;;;;;;4.75;4.28;;;;;;;4.89;76.48;98398.72;10380677;28;20049;-72
2020/12/29 23:43:40;;;;;;;7.32;4.65;;;;;;;4.87;77.04;98386.66;10379088;28;20076;-73
2020/12/29 23:48:42;;;;;;;6.32;5.00;;;;;;;4.82;77.31;98384.41;10380071;28;20049;-73